This is the latest recevied weather packets stored in our database for station/object ANJALA. If no packets are shown the sender has not sent any weather packets the latest 10 day(s).
| Time | Temp. | Humidity | Pressure | Rain* | Wind** | Luminosity | Snow |
|---|---|---|---|---|---|---|---|
| 1777217192 | 5.56° C | 44% | - | 0 mm | - | - | - |
| 1777215992 | 6.11° C | 44% | - | 0 mm | - | - | - |
| 1777214792 | 6.11° C | 47% | - | 0 mm | - | - | - |
| 1777213592 | 5° C | 50% | - | 0 mm | - | - | - |
| 1777212392 | 4.44° C | 52% | - | 0 mm | - | - | - |
| 1777211191 | 4.44° C | 51% | - | 0 mm | - | - | - |
| 1777209992 | 3.89° C | 55% | - | 0 mm | - | - | - |
| 1777208792 | 4.44° C | 54% | - | 0 mm | - | - | - |
| 1777207591 | 3.89° C | 56% | - | 0 mm | - | - | - |
| 1777206391 | 3.89° C | 59% | - | 0 mm | - | - | - |
| 1777205191 | 3.89° C | 56% | - | 0 mm | - | - | - |
| 1777203991 | 3.33° C | 61% | - | 0 mm | - | - | - |
| 1777202791 | 3.33° C | 62% | - | 0 mm | - | - | - |
| 1777201591 | 3.33° C | 61% | - | 0 mm | - | - | - |
| 1777200391 | 2.78° C | 64% | - | 0 mm | - | - | - |
| 1777199190 | 2.78° C | 67% | - | 0 mm | - | - | - |
| 1777197991 | 2.22° C | 69% | - | 0 mm | - | - | - |
| 1777196791 | 1.67° C | 72% | - | 0 mm | - | - | - |
| 1777195591 | 1.67° C | 77% | - | 0 mm | - | - | - |
| 1777194390 | 1.11° C | 79% | - | 0 mm | - | - | - |
| 1777193190 | 1.11° C | 82% | - | 0 mm | - | - | - |
| 1777191991 | 0.56° C | 84% | - | 0 mm | - | - | - |
| 1777190790 | 0.56° C | 85% | - | 0 mm | - | - | - |
| 1777189590 | 0.56° C | 86% | - | 0 mm | - | - | - |
| 1777188390 | 0.56° C | 87% | - | 0 mm | - | - | - |
* Rain latest hour (hover to see other rain measurements)
** Current wind speed in m/s (hover to see current wind gust speed)